Map

Track Data

SID SEASON NUMBER BASIN SUBBASIN NAME ISO_TIME NATURE LAT LON WMO_WIND WMO_PRES WMO_AGENCY TRACK_TYPE DIST2LAND LANDFALL IFLAG USA_AGENCY USA_ATCF_ID USA_LAT USA_LON USA_RECORD USA_STATUS USA_WIND USA_PRES USA_SSHS USA_R34_NE USA_R34_SE USA_R34_SW USA_R34_NW USA_R50_NE USA_R50_SE USA_R50_SW USA_R50_NW USA_R64_NE USA_R64_SE USA_R64_SW USA_R64_NW USA_POCI USA_ROCI USA_RMW USA_EYE TOKYO_LAT TOKYO_LON TOKYO_GRADE TOKYO_WIND TOKYO_PRES TOKYO_R50_DIR TOKYO_R50_LONG TOKYO_R50_SHORT TOKYO_R30_DIR TOKYO_R30_LONG TOKYO_R30_SHORT TOKYO_LAND CMA_LAT CMA_LON CMA_CAT CMA_WIND CMA_PRES HKO_LAT HKO_LON HKO_CAT HKO_WIND HKO_PRES NEWDELHI_LAT NEWDELHI_LON NEWDELHI_GRADE NEWDELHI_WIND NEWDELHI_PRES NEWDELHI_CI NEWDELHI_DP NEWDELHI_POCI REUNION_LAT REUNION_LON REUNION_TYPE REUNION_WIND REUNION_PRES REUNION_TNUM REUNION_CI REUNION_RMW REUNION_R34_NE REUNION_R34_SE REUNION_R34_SW REUNION_R34_NW REUNION_R50_NE REUNION_R50_SE REUNION_R50_SW REUNION_R50_NW REUNION_R64_NE REUNION_R64_SE REUNION_R64_SW REUNION_R64_NW BOM_LAT BOM_LON BOM_TYPE BOM_WIND BOM_PRES BOM_TNUM BOM_CI BOM_RMW BOM_R34_NE BOM_R34_SE BOM_R34_SW BOM_R34_NW BOM_R50_NE BOM_R50_SE BOM_R50_SW BOM_R50_NW BOM_R64_NE BOM_R64_SE BOM_R64_SW BOM_R64_NW BOM_ROCI BOM_POCI BOM_EYE BOM_POS_METHOD BOM_PRES_METHOD NADI_LAT NADI_LON NADI_CAT NADI_WIND NADI_PRES WELLINGTON_LAT WELLINGTON_LON WELLINGTON_WIND WELLINGTON_PRES DS824_LAT DS824_LON DS824_STAGE DS824_WIND DS824_PRES TD9636_LAT TD9636_LON TD9636_STAGE TD9636_WIND TD9636_PRES TD9635_LAT TD9635_LON TD9635_WIND TD9635_PRES TD9635_ROCI NEUMANN_LAT NEUMANN_LON NEUMANN_CLASS NEUMANN_WIND NEUMANN_PRES MLC_LAT MLC_LON MLC_CLASS MLC_WIND MLC_PRES USA_GUST BOM_GUST BOM_GUST_PER REUNION_GUST REUNION_GUST_PER USA_SEAHGT USA_SEARAD_NE USA_SEARAD_SE USA_SEARAD_SW USA_SEARAD_NW STORM_SPEED STORM_DIR
1987258N15253 1987 77 EP MM NORMA 1987-09-14 12:00:00 TS 15.4000 -107.400 25 hurdat_epa main 506 491 O_________O___ hurdat_epa EP141987 15.4000 -107.400 TD 25 -1 15.4000 -107.400 1 25 11 316
1987258N15253 1987 77 EP MM NORMA 1987-09-14 15:00:00 TS 15.8075 -107.802 main 495 487 P_________P___ EP141987 15.8201 -107.797 TD 25 -1 15.7695 -107.817 1 26 11 315
1987258N15253 1987 77 EP MM NORMA 1987-09-14 18:00:00 TS 16.1827 -108.207 25 hurdat_epa main 492 492 O_________P___ hurdat_epa EP141987 16.2000 -108.200 TD 25 -1 16.1308 -108.229 1 27 10 312
1987258N15253 1987 77 EP MM NORMA 1987-09-14 21:00:00 TS 16.5054 -108.612 main 499 499 P_________P___ EP141987 16.5150 -108.608 TD 27 -1 16.4768 -108.625 1 28 10 309
1987258N15253 1987 77 EP MM NORMA 1987-09-15 00:00:00 TS 16.8000 -109.000 30 hurdat_epa main 507 507 O_________O___ hurdat_epa EP141987 16.8000 -109.000 TD 30 -1 16.8000 -109.000 1 30 9 310
1987258N15253 1987 77 EP MM NORMA 1987-09-15 03:00:00 TS 17.1099 -109.361 main 521 515 P_________P___ EP141987 17.1149 -109.365 TD 30 -1 17.0946 -109.347 1 30 9 312
1987258N15253 1987 77 EP MM NORMA 1987-09-15 06:00:00 TS 17.3899 -109.693 30 hurdat_epa main 529 529 O_________P___ hurdat_epa EP141987 17.4000 -109.700 TD 30 -1 17.3595 -109.673 1 30 8 309
1987258N15253 1987 77 EP MM NORMA 1987-09-15 09:00:00 TS 17.6098 -109.997 main 544 544 P_________P___ EP141987 17.6149 -110.000 TD 30 -1 17.5947 -109.988 1 30 7 305
1987258N15253 1987 77 EP MM NORMA 1987-09-15 12:00:00 TS 17.8000 -110.300 30 hurdat_epa main 561 550 O_________O___ hurdat_epa EP141987 17.8000 -110.300 TD 30 -1 17.8000 -110.300 1 30 7 303
1987258N15253 1987 77 EP MM NORMA 1987-09-15 15:00:00 TS 18.0070 -110.649 main 551 533 P_________P___ EP141987 18.0150 -110.650 TD 32 -1 17.9828 -110.646 1 31 8 300
1987258N15253 1987 77 EP MM NORMA 1987-09-15 18:00:00 TS 18.1844 -110.997 35 hurdat_epa main 535 529 O_________P___ hurdat_epa EP141987 18.2000 -111.000 TS 35 0 18.1376 -110.988 1 32 7 295
1987258N15253 1987 77 EP MM NORMA 1987-09-15 21:00:00 TS 18.2990 -111.320 main 531 526 P_________P___ EP141987 18.3075 -111.323 TS 35 0 18.2735 -111.311 1 33 6 291
1987258N15253 1987 77 EP MM NORMA 1987-09-16 00:00:00 TS 18.4000 -111.600 35 hurdat_epa main 530 522 O_________O___ hurdat_epa EP141987 18.4000 -111.600 TS 35 0 18.4000 -111.600 2 35 5 298
1987258N15253 1987 77 EP MM NORMA 1987-09-16 03:00:00 TS 18.5464 -111.820 main 526 513 P_________P___ EP141987 18.5499 -111.815 TS 35 0 18.5359 -111.836 2 35 5 307
1987258N15253 1987 77 EP MM NORMA 1987-09-16 06:00:00 TS 18.6912 -112.009 35 hurdat_epa main 513 507 O_________P___ hurdat_epa EP141987 18.7000 -112.000 TS 35 0 18.6646 -112.038 2 35 4 306
1987258N15253 1987 77 EP MM NORMA 1987-09-16 09:00:00 TS 18.8077 -112.200 main 512 507 P_________P___ EP141987 18.8150 -112.193 TS 35 0 18.7860 -112.221 2 35 4 299
1987258N15253 1987 77 EP MM NORMA 1987-09-16 12:00:00 TS 18.9000 -112.400 35 hurdat_epa main 512 512 O_________O___ hurdat_epa EP141987 18.9000 -112.400 TS 35 0 18.9000 -112.400 2 35 5 289
1987258N15253 1987 77 EP MM NORMA 1987-09-16 15:00:00 TS 18.9567 -112.649 main 512 512 P_________P___ EP141987 18.9425 -112.658 TS 35 0 18.9991 -112.624 2 35 5 285
1987258N15253 1987 77 EP MM NORMA 1987-09-16 18:00:00 TS 19.0232 -112.886 35 hurdat_epa main 529 520 O_________P___ hurdat_epa EP141987 19.0000 -112.900 TS 35 0 19.0926 -112.845 2 35 4 295
1987258N15253 1987 77 EP MM NORMA 1987-09-16 21:00:00 TS 19.1430 -113.071 main 532 521 P_________P___ EP141987 19.1275 -113.080 TS 35 0 19.1898 -113.043 2 35 4 313
1987258N15253 1987 77 EP MM NORMA 1987-09-17 00:00:00 TS 19.3000 -113.200 35 hurdat_epa main 521 511 O_________O___ hurdat_epa EP141987 19.3000 -113.200 TS 35 0 19.3000 -113.200 2 35 4 331
1987258N15253 1987 77 EP MM NORMA 1987-09-17 03:00:00 TS 19.4895 -113.273 main 511 494 P_________P___ EP141987 19.5075 -113.265 TS 37 0 19.4355 -113.297 2 42 4 344
1987258N15253 1987 77 EP MM NORMA 1987-09-17 06:00:00 TS 19.6712 -113.313 40 hurdat_epa main 494 486 O_________P___ hurdat_epa EP141987 19.7000 -113.300 TS 40 0 19.5848 -113.353 2 50 3 345
1987258N15253 1987 77 EP MM NORMA 1987-09-17 09:00:00 TS 19.7911 -113.358 main 494 486 P_________P___ EP141987 19.8075 -113.350 TS 52 0 19.7418 -113.382 2 57 2 342
1987258N15253 1987 77 EP MM NORMA 1987-09-17 12:00:00 TS 19.9000 -113.400 65 hurdat_epa main 486 478 O_________O___ hurdat_epa EP141987 19.9000 -113.400 HU 65 1 19.9000 -113.400 3 65 3 341
1987258N15253 1987 77 EP MM NORMA 1987-09-17 15:00:00 TS 20.0413 -113.454 main 486 471 P_________P___ EP141987 20.0425 -113.457 HU 65 1 20.0378 -113.444 3 63 3 344
1987258N15253 1987 77 EP MM NORMA 1987-09-17 18:00:00 TS 20.1944 -113.495 65 hurdat_epa main 471 464 O_________P___ hurdat_epa EP141987 20.2000 -113.500 HU 65 1 20.1775 -113.480 3 62 3 351
1987258N15253 1987 77 EP MM NORMA 1987-09-17 21:00:00 TS 20.3390 -113.506 main 464 450 P_________P___ EP141987 20.3425 -113.508 HU 62 0 20.3284 -113.501 3 61 3 356
1987258N15253 1987 77 EP MM NORMA 1987-09-18 00:00:00 TS 20.5000 -113.500 60 hurdat_epa main 450 437 O_________O___ hurdat_epa EP141987 20.5000 -113.500 TS 60 0 20.5000 -113.500 2 60 4 4
1987258N15253 1987 77 EP MM NORMA 1987-09-18 03:00:00 TS 20.6876 -113.505 main 437 424 P_________P___ EP141987 20.6850 -113.515 TS 57 0 20.6953 -113.476 2 56 4 2
1987258N15253 1987 77 EP MM NORMA 1987-09-18 06:00:00 TS 20.9031 -113.483 55 hurdat_epa main 424 404 O_________P___ hurdat_epa EP141987 20.9000 -113.500 TS 55 0 20.9125 -113.430 2 52 5 12
1987258N15253 1987 77 EP MM NORMA 1987-09-18 09:00:00 TS 21.1440 -113.398 main 404 376 P_________P___ EP141987 21.1425 -113.408 TS 50 0 21.1484 -113.369 2 48 5 19
1987258N15253 1987 77 EP MM NORMA 1987-09-18 12:00:00 TS 21.4000 -113.300 45 hurdat_epa main 376 352 O_________O___ hurdat_epa EP141987 21.4000 -113.300 TS 45 0 21.4000 -113.300 2 45 5 16
1987258N15253 1987 77 EP MM NORMA 1987-09-18 15:00:00 TS 21.6480 -113.242 main 352 323 P_________P___ EP141987 21.6425 -113.250 TS 47 0 21.6647 -113.220 2 46 5 12
1987258N15253 1987 77 EP MM NORMA 1987-09-18 18:00:00 TS 21.9106 -113.184 50 hurdat_epa main 323 289 O_________P___ hurdat_epa EP141987 21.9000 -113.200 TS 50 0 21.9425 -113.135 2 47 6 15
1987258N15253 1987 77 EP MM NORMA 1987-09-18 21:00:00 TS 22.1948 -113.084 main 289 254 P_________P___ EP141987 22.1850 -113.093 TS 50 0 22.2241 -113.058 2 48 6 16
1987258N15253 1987 77 EP MM NORMA 1987-09-19 00:00:00 TS 22.5000 -113.000 50 hurdat_epa main 254 225 O_________O___ hurdat_epa EP141987 22.5000 -113.000 TS 50 0 22.5000 -113.000 2 50 7 8
1987258N15253 1987 77 EP MM NORMA 1987-09-19 03:00:00 TS 22.8487 -112.986 main 225 198 P_________P___ EP141987 22.8725 -112.985 TS 47 0 22.7775 -112.990 2 48 7 0
1987258N15253 1987 77 EP MM NORMA 1987-09-19 06:00:00 TS 23.1612 -113.000 45 hurdat_epa main 189 181 O_________P___ hurdat_epa EP141987 23.2000 -113.000 TS 45 0 23.0449 -113.000 2 47 5 0
1987258N15253 1987 77 EP MM NORMA 1987-09-19 09:00:00 TS 23.3575 -113.013 main 171 162 P_________P___ EP141987 23.3800 -113.015 TS 45 0 23.2900 -113.009 2 46 3 0
1987258N15253 1987 77 EP MM NORMA 1987-09-19 12:00:00 TS 23.5000 -113.000 45 hurdat_epa main 162 138 O_________O___ hurdat_epa EP141987 23.5000 -113.000 TS 45 0 23.5000 -113.000 2 45 3 16
1987258N15253 1987 77 EP MM NORMA 1987-09-19 15:00:00 TS 23.6614 -112.921 main 138 123 P_________P___ EP141987 23.6575 -112.908 TS 37 0 23.6731 -112.963 2 41 3 27
1987258N15253 1987 77 EP MM NORMA 1987-09-19 18:00:00 TS 23.8025 -112.826 30 hurdat_epa main 123 114 O_________P___ hurdat_epa EP141987 23.8000 -112.800 TD 30 -1 23.8099 -112.903 2 37 3 28
1987258N15253 1987 77 EP MM NORMA 1987-09-19 21:00:00 TS 23.9154 -112.772 main 114 99 P_________P___ EP141987 23.9150 -112.757 TD 30 -1 23.9168 -112.816 2 33 2 30
1987258N15253 1987 77 EP MM NORMA 1987-09-20 00:00:00 TS 24.0000 -112.700 30 hurdat_epa main 99 83 O_________O___ hurdat_epa EP141987 24.0000 -112.700 TD 30 -1 24.0000 -112.700 1 30 2 52
1987258N15253 1987 77 EP MM NORMA 1987-09-20 03:00:00 TS 24.0595 -112.568 main 83 73 P_________P___ EP141987 24.0575 -112.572 TD 27 -1 24.0655 -112.553 1 28 3 69
1987258N15253 1987 77 EP MM NORMA 1987-09-20 06:00:00 TS 24.1044 -112.396 25 hurdat_epa main 73 60 O_________P___ hurdat_epa EP141987 24.1000 -112.400 TD 25 -1 24.1178 -112.383 1 27 3 75
1987258N15253 1987 77 EP MM NORMA 1987-09-20 09:00:00 TS 24.1510 -112.203 main 52 39 P_________P___ EP141987 24.1476 -112.205 TD 25 -1 24.1612 -112.195 1 26 4 75
1987258N15253 1987 77 EP MM NORMA 1987-09-20 12:00:00 TS 24.2000 -112.000 25 hurdat_epa main 39 O_________O___ hurdat_epa EP141987 24.2000 -112.000 TD 25 -1 24.2000 -112.000 1 25 4 75

About IBTrACS Database

This database is a web-friendly format of International Best Track Archive for Climate Stewardship (IBTrACS), a global best track data archive curated by NOAA dating back to 1842.

Updated: 2021-12-01